Time;durP1;ratioP1;P1;durP2;ratioP2;P2;SDS_P1;SDS_P2;PMS_P1;PMS_P2;Temp;Humidity;BMP_temperature;BMP_pressure;BME280_temperature;BME280_humidity;BME280_pressure;Samples;Min_cycle;Max_cycle;Signal;HPM_P1;HPM_P2
2022/06/25 00:05:27;;;;;;;13.38;9.80;;;;;;;15.33;93.43;97428.94;10453499;28;20072;-58
2022/06/25 00:09:24;;;;;;;13.60;9.63;;;;;;;15.28;93.23;97413.38;10452497;28;20059;-57
2022/06/25 00:14:23;;;;;;;;;;;;;;;15.29;92.82;97402.00;10448418;28;20141;-58
2022/06/25 00:19:23;;;;;;;13.50;9.68;;;;;;;15.28;92.78;97400.31;10417582;28;20307;-58
2022/06/25 00:24:22;;;;;;;14.88;10.38;;;;;;;15.24;92.94;97396.91;10416906;28;20091;-58
2022/06/25 00:29:21;;;;;;;15.55;11.25;;;;;;;15.21;93.42;97391.75;10416117;28;20459;-58
2022/06/25 00:34:20;;;;;;;;;;;;;;;15.23;93.13;97396.97;10416034;28;20426;-58
2022/06/25 00:39:19;;;;;;;13.85;9.77;;;;;;;14.88;93.83;97348.19;10416583;28;19913;-58
2022/06/25 00:44:18;;;;;;;12.88;9.82;;;;;;;15.07;93.78;97380.81;10416715;28;20026;-58
2022/06/25 00:49:17;;;;;;;;;;;;;;;15.07;93.39;97380.81;10421669;28;20028;-57
2022/06/25 00:54:17;;;;;;;13.35;10.35;;;;;;;14.88;94.43;97376.94;10457203;28;19938;-58
2022/06/25 00:59:26;;;;;;;13.40;10.15;;;;;;;14.86;94.40;97391.78;10471779;28;20075;-57
2022/06/25 01:04:25;;;;;;;20.02;11.75;;;;;;;14.68;94.90;97395.63;10456613;28;20456;-58
2022/06/25 01:09:25;;;;;;;14.85;11.25;;;;;;;14.49;95.23;97397.81;10456701;28;20488;-57
2022/06/25 01:14:24;;;;;;;13.73;10.70;;;;;;;14.35;94.92;97374.63;10444311;28;20442;-58
2022/06/25 01:19:23;;;;;;;;;;;;;;;14.40;95.30;97389.31;10457339;28;20395;-58
2022/06/25 01:24:22;;;;;;;15.88;10.95;;;;;;;14.41;95.26;97393.63;10432445;28;19916;-58
2022/06/25 01:29:21;;;;;;;17.98;11.55;;;;;;;14.37;95.15;97385.91;10414689;28;20131;-57
2022/06/25 01:34:20;;;;;;;15.50;11.85;;;;;;;14.44;95.34;97390.09;10432996;28;20044;-57
2022/06/25 01:39:19;;;;;;;;;;;;;;;14.46;95.54;97392.69;10456042;28;20074;-58
2022/06/25 01:44:18;;;;;;;14.50;11.45;;;;;;;14.46;95.50;97400.50;10453092;28;20042;-57
2022/06/25 01:49:16;;;;;;;16.95;12.85;;;;;;;14.39;96.02;97391.94;10414679;28;20107;-58
2022/06/25 01:54:15;;;;;;;;;;;;;;;14.30;96.40;97394.75;10414979;28;20031;-58
2022/06/25 01:59:14;;;;;;;18.30;13.57;;;;;;;14.27;96.66;97398.28;10431320;28;20029;-57
2022/06/25 02:04:13;;;;;;;15.95;12.85;;;;;;;14.28;97.31;97401.75;10452290;28;20130;-57
2022/06/25 02:09:12;;;;;;;19.52;13.25;;;;;;;14.29;97.29;97406.94;10422522;28;20027;-58
2022/06/25 02:14:11;;;;;;;18.88;12.68;;;;;;;14.36;96.77;97408.53;10438780;28;20034;-57
2022/06/25 02:19:10;;;;;;;19.52;13.00;;;;;;;14.38;97.20;97405.88;10422124;28;20040;-57
2022/06/25 02:24:09;;;;;;;19.25;12.80;;;;;;;14.42;97.19;97423.19;10413360;28;20028;-57
2022/06/25 02:29:36;;;;;;;17.88;13.77;;;;;;;14.46;96.72;97414.41;10427037;28;20040;-58
2022/06/25 02:34:35;;;;;;;19.27;14.43;;;;;;;14.49;96.84;97430.00;10461352;28;20086;-57
2022/06/25 02:39:34;;;;;;;21.95;14.85;;;;;;;14.47;96.71;97436.16;10462840;28;20125;-57
2022/06/25 02:44:33;;;;;;;18.58;14.48;;;;;;;14.46;97.20;97444.88;10459445;28;20062;-57
2022/06/25 02:49:32;;;;;;;;;;;;;;;14.48;97.49;97443.97;10462976;28;20032;-57
2022/06/25 02:54:31;;;;;;;21.02;14.20;;;;;;;14.53;97.44;97431.66;10463701;28;19998;-57
2022/06/25 02:59:30;;;;;;;18.20;13.93;;;;;;;14.58;97.34;97434.16;10502899;28;20032;-57
2022/06/25 03:04:29;;;;;;;18.42;13.18;;;;;;;14.55;97.02;97408.13;10422504;28;20497;-57
2022/06/25 03:09:28;;;;;;;17.65;13.38;;;;;;;14.56;97.31;97420.28;10423135;28;20503;-57
2022/06/25 03:14:27;;;;;;;;;;;;;;;14.50;97.29;97436.06;10447700;28;20078;-57
2022/06/25 03:19:26;;;;;;;15.50;12.18;;;;;;;14.49;97.01;97436.97;10434525;28;19959;-57
2022/06/25 03:24:25;;;;;;;15.75;11.82;;;;;;;14.56;97.16;97441.19;10427071;28;20069;-57
2022/06/25 03:29:23;;;;;;;16.48;11.52;;;;;;;14.67;97.21;97431.34;10463198;28;20544;-57
2022/06/25 03:34:22;;;;;;;19.40;11.00;;;;;;;14.82;97.09;97423.19;10462832;28;20036;-57
2022/06/25 03:39:22;;;;;;;13.55;10.27;;;;;;;14.97;96.27;97419.38;10434869;28;20484;-57
2022/06/25 03:44:22;;;;;;;14.63;9.15;;;;;;;15.03;95.04;97413.13;10418814;28;20055;-57
2022/06/25 03:49:20;;;;;;;;;;;;;;;14.95;93.96;97425.53;10441647;28;20036;-57
2022/06/25 03:54:20;;;;;;;14.50;9.23;;;;;;;14.66;93.72;97437.44;10416695;28;19912;-57
2022/06/25 03:59:19;;;;;;;14.02;9.70;;;;;;;14.43;94.29;97429.28;10489816;28;20070;-57
2022/06/25 04:04:18;;;;;;;;;;;;;;;14.27;95.64;97434.84;10425622;28;20037;-57
2022/06/25 04:09:17;;;;;;;12.18;10.00;;;;;;;14.46;95.23;97443.13;10416818;28;20424;-57
2022/06/25 04:14:16;;;;;;;14.50;10.30;;;;;;;14.62;95.42;97435.81;10422262;28;20479;-57
2022/06/25 04:19:15;;;;;;;;;;;;;;;14.91;95.08;97435.19;10416623;28;20719;-57
2022/06/25 04:24:15;;;;;;;15.52;9.82;;;;;;;15.14;95.16;97432.03;10415860;28;19947;-57
2022/06/25 04:29:14;;;;;;;15.02;10.02;;;;;;;15.33;94.22;97436.78;10414812;28;20475;-57
2022/06/25 04:34:15;;;;;;;;;;;;;;;15.38;93.35;97434.91;10415560;28;20477;-57
2022/06/25 04:39:14;;;;;;;12.23;10.32;;;;;;;15.48;92.89;97433.78;10414504;28;20007;-57
2022/06/25 04:44:15;;;;;;;14.02;10.00;;;;;;;15.66;92.90;97443.75;10415167;28;20075;-57
2022/06/25 04:49:15;;;;;;;13.73;10.90;;;;;;;15.88;91.78;97438.00;10445306;28;20557;-57
2022/06/25 04:54:15;;;;;;;14.90;11.43;;;;;;;16.03;91.85;97432.34;10497480;28;20063;-57
2022/06/25 04:59:15;;;;;;;13.73;10.32;;;;;;;16.30;91.18;97435.94;10474955;28;20063;-57
2022/06/25 05:04:14;;;;;;;13.35;10.20;;;;;;;16.67;91.11;97442.69;10452192;28;20074;-57
2022/06/25 05:09:13;;;;;;;;;;;;;;;16.88;89.45;97435.94;10457049;28;20016;-57
2022/06/25 05:14:12;;;;;;;15.00;8.80;;;;;;;17.18;87.99;97451.63;10448381;28;20030;-57
2022/06/25 05:19:12;;;;;;;10.55;8.00;;;;;;;17.49;85.79;97447.97;10456100;28;20039;-57
2022/06/25 05:24:10;;;;;;;13.18;8.57;;;;;;;17.68;84.68;97458.69;10454837;28;20502;-57
2022/06/25 05:29:09;;;;;;;12.57;8.57;;;;;;;18.07;nan;97463.50;10455536;28;20027;-57
2022/06/25 05:34:08;;;;;;;22.02;8.85;;;;;;;18.44;83.04;97468.28;10455865;28;20102;-57
2022/06/25 05:39:07;;;;;;;11.90;8.50;;;;;;;18.85;82.43;97467.66;10414959;28;20047;-57
2022/06/25 05:44:06;;;;;;;13.85;8.85;;;;;;;19.26;80.63;97458.13;10414561;28;20052;-57
2022/06/25 05:49:05;;;;;;;9.73;8.70;;;;;;;19.42;78.03;97469.72;10413910;28;20071;-57
2022/06/25 05:54:04;;;;;;;11.23;9.85;;;;;;;19.45;77.31;97459.06;10416133;28;20016;-57
2022/06/25 05:59:03;;;;;;;11.60;9.73;;;;;;;19.45;77.78;97453.81;10472547;28;20021;-57
2022/06/25 06:04:02;;;;;;;13.55;9.55;;;;;;;19.71;77.99;97458.94;10452629;28;20047;-57
2022/06/25 06:09:01;;;;;;;13.73;8.80;;;;;;;20.05;76.45;97458.34;10464458;28;20012;-57
2022/06/25 06:14:00;;;;;;;11.07;8.57;;;;;;;20.21;75.16;97454.09;10449646;28;20066;-57
2022/06/25 06:18:59;;;;;;;12.05;8.80;;;;;;;20.40;74.14;97448.91;10466391;28;20027;-57
2022/06/25 06:23:58;;;;;;;11.10;8.98;;;;;;;20.63;73.16;97455.75;10410459;28;20032;-58
2022/06/25 06:28:57;;;;;;;14.00;9.00;;;;;;;20.83;72.63;97452.16;10424161;28;20021;-58
2022/06/25 06:33:57;;;;;;;14.55;9.27;;;;;;;20.85;72.16;97460.00;10423991;28;20143;-57
2022/06/25 06:38:56;;;;;;;11.80;8.60;;;;;;;20.51;73.56;97461.56;10459648;28;20067;-57
2022/06/25 06:43:54;;;;;;;11.63;8.57;;;;;;;20.37;74.17;97448.13;10502959;28;20055;-58
2022/06/25 06:48:53;;;;;;;11.23;8.20;;;;;;;20.44;73.88;97454.88;10433509;28;20040;-57
2022/06/25 06:53:52;;;;;;;9.93;8.05;;;;;;;20.39;73.08;97459.47;10464761;28;20039;-57
2022/06/25 06:58:51;;;;;;;10.27;7.05;;;;;;;20.65;73.25;97455.66;10483372;28;20059;-57
2022/06/25 07:03:50;;;;;;;9.40;6.97;;;;;;;20.97;71.88;97448.03;10460853;28;20031;-57
2022/06/25 07:08:49;;;;;;;8.25;6.70;;;;;;;21.32;70.84;97443.72;10457476;28;20439;-58
2022/06/25 07:13:48;;;;;;;8.50;6.55;;;;;;;21.57;69.56;97437.19;10459161;28;20438;-57
2022/06/25 07:18:47;;;;;;;7.30;5.90;;;;;;;21.93;67.65;97448.53;10461124;28;20402;-58
2022/06/25 07:23:47;;;;;;;7.68;6.20;;;;;;;22.31;68.23;97437.75;10454679;28;20064;-57
2022/06/25 07:28:46;;;;;;;9.18;6.22;;;;;;;22.57;64.96;97435.50;10459965;28;20580;-58
2022/06/25 07:33:45;;;;;;;8.38;6.32;;;;;;;22.84;64.63;97432.31;10418498;28;20095;-57
2022/06/25 07:38:44;;;;;;;9.25;6.57;;;;;;;23.01;63.53;97429.56;10417952;28;20043;-58
2022/06/25 07:43:43;;;;;;;8.15;5.82;;;;;;;23.23;62.79;97445.06;10416804;28;20453;-57
2022/06/25 07:48:42;;;;;;;7.97;5.85;;;;;;;23.38;61.02;97427.47;10456768;28;20043;-57
2022/06/25 07:53:41;;;;;;;9.13;5.45;;;;;;;23.45;59.95;97431.44;10475330;28;20109;-57
2022/06/25 07:58:40;;;;;;;9.15;6.93;;;;;;;23.57;58.86;97433.41;10477940;28;20058;-57
2022/06/25 08:03:40;;;;;;;8.07;5.55;;;;;;;23.95;60.02;97432.91;10432655;28;20075;-58
2022/06/25 08:08:39;;;;;;;7.30;5.80;;;;;;;24.27;58.43;97446.91;10416537;28;20060;-57
2022/06/25 08:13:38;;;;;;;7.07;5.35;;;;;;;24.36;56.50;97440.19;10459803;28;20082;-57
2022/06/25 08:18:38;;;;;;;7.47;5.32;;;;;;;24.40;55.68;97428.44;10479871;28;20496;-58
2022/06/25 08:23:37;;;;;;;7.07;4.90;;;;;;;24.52;53.33;97416.22;10418548;28;20476;-57
2022/06/25 08:28:36;;;;;;;5.13;4.60;;;;;;;24.79;52.47;97424.22;10499775;28;20066;-58
2022/06/25 08:33:35;;;;;;;7.55;5.53;;;;;;;24.99;53.14;97417.66;10420539;28;20099;-58
2022/06/25 08:38:35;;;;;;;4.72;4.28;;;;;;;25.17;53.04;97381.06;10415628;28;20097;-57
2022/06/25 08:43:36;;;;;;;6.25;4.93;;;;;;;25.50;51.09;97398.38;10434307;28;20093;-57
2022/06/25 08:48:37;;;;;;;5.80;4.32;;;;;;;25.77;47.68;97416.94;10457247;28;20485;-58
2022/06/25 08:53:37;;;;;;;4.70;3.83;;;;;;;26.24;44.01;97404.03;10436912;28;20086;-58
2022/06/25 08:58:36;;;;;;;5.57;3.65;;;;;;;26.51;43.51;97415.38;10475193;28;20070;-58
2022/06/25 09:03:35;;;;;;;4.88;3.85;;;;;;;26.41;41.81;97421.44;10460672;28;20056;-58
2022/06/25 09:08:34;;;;;;;5.55;3.70;;;;;;;26.63;41.29;97428.75;10415375;28;20071;-57
2022/06/25 09:13:33;;;;;;;4.80;3.90;;;;;;;26.82;42.67;97426.47;10456792;28;20103;-57
2022/06/25 09:18:34;;;;;;;5.45;3.90;;;;;;;27.11;40.66;97427.03;10444816;28;20075;-57
2022/06/25 09:23:36;;;;;;;7.35;3.80;;;;;;;27.27;39.23;97425.91;10415383;28;20102;-57
2022/06/25 09:28:42;;;;;;;5.35;2.90;;;;;;;27.67;33.83;97426.47;10419872;28;20467;-57
2022/06/25 09:33:41;;;;;;;4.35;3.10;;;;;;;28.10;33.91;97415.19;10415323;28;20084;-57
2022/06/25 09:38:49;;;;;;;3.72;3.30;;;;;;;28.61;33.61;97413.88;10414672;28;20048;-57
2022/06/25 09:43:48;;;;;;;4.10;3.70;;;;;;;28.94;32.81;97415.66;10422940;28;20534;-57
2022/06/25 09:48:47;;;;;;;6.00;3.72;;;;;;;29.23;32.43;97420.47;10423292;28;20025;-57
2022/06/25 09:53:55;;;;;;;4.60;3.70;;;;;;;29.15;32.06;97401.53;10422728;28;20028;-57
2022/06/25 09:58:55;;;;;;;4.60;3.90;;;;;;;28.65;32.66;97410.81;10488175;28;20059;-60
2022/06/25 10:03:55;;;;;;;6.05;3.60;;;;;;;28.86;34.35;97400.28;10475223;28;20075;-57
2022/06/25 10:08:59;;;;;;;5.15;4.03;;;;;;;29.11;33.83;97389.38;10463182;28;20711;-57
2022/06/25 10:13:58;;;;;;;5.55;4.30;;;;;;;28.88;34.93;97405.50;10488067;28;20059;-57
2022/06/25 10:19:00;;;;;;;6.57;4.13;;;;;;;28.74;35.98;97403.09;10465585;28;20060;-57
2022/06/25 10:24:05;;;;;;;4.80;4.05;;;;;;;28.57;36.44;97399.06;10421934;28;20064;-57
2022/06/25 10:29:23;;;;;;;6.28;4.68;;;;;;;28.58;37.22;97401.63;10420384;28;20519;-57
2022/06/25 10:34:22;;;;;;;5.37;3.93;;;;;;;28.65;36.66;97405.50;10421369;28;20536;-57
2022/06/25 10:39:26;;;;;;;4.68;4.00;;;;;;;28.52;37.87;97399.44;10439815;28;20039;-57
2022/06/25 10:44:27;;;;;;;6.38;4.60;;;;;;;28.29;37.84;97403.94;10462077;28;20071;-57
2022/06/25 10:49:30;;;;;;;6.45;4.40;;;;;;;28.41;38.81;97388.78;10441795;28;20064;-57
2022/06/25 10:54:29;;;;;;;4.75;4.05;;;;;;;28.68;39.38;97393.75;10423671;28;20095;-57
2022/06/25 10:59:55;;;;;;;6.18;4.30;;;;;;;28.77;39.71;97376.13;10488637;28;20040;-57
2022/06/25 11:04:54;;;;;;;5.57;4.00;;;;;;;28.87;39.59;97385.09;10422491;28;20029;-57
2022/06/25 11:09:58;;;;;;;6.82;4.13;;;;;;;28.70;39.86;97386.47;10423165;28;20611;-57
2022/06/25 11:15:03;;;;;;;6.53;4.30;;;;;;;28.85;40.31;97384.34;10459106;28;20431;-57
2022/06/25 11:20:09;;;;;;;5.60;4.05;;;;;;;28.69;39.87;97376.78;10463421;28;20068;-57
2022/06/25 11:30:27;;;;;;;6.47;4.18;;;;;;;28.75;39.72;97367.41;10446187;28;20079;-57
2022/06/25 11:35:40;;;;;;;7.07;4.32;;;;;;;28.86;39.25;97357.53;10464008;28;20075;-57
2022/06/25 11:40:39;;;;;;;4.95;4.00;;;;;;;29.15;38.94;97348.09;10446047;28;20068;-57
2022/06/25 11:45:50;;;;;;;6.10;4.15;;;;;;;29.18;38.77;97353.16;10422171;28;20070;-57
2022/06/25 11:50:53;;;;;;;6.22;4.38;;;;;;;29.23;38.71;97338.47;10420338;28;20075;-57
2022/06/25 11:56:00;;;;;;;6.57;4.47;;;;;;;28.92;39.85;97333.97;10432951;28;20063;-57
2022/06/25 12:01:00;;;;;;;6.38;4.30;;;;;;;28.91;38.90;97361.66;10489703;28;20056;-57
2022/06/25 12:06:01;;;;;;;6.88;5.18;;;;;;;29.16;39.61;97355.16;10436945;28;20495;-57
2022/06/25 12:11:01;;;;;;;5.50;4.20;;;;;;;29.55;38.08;97342.09;10418640;28;20101;-57
2022/06/25 12:16:03;;;;;;;7.75;5.00;;;;;;;29.94;37.91;97342.38;10499897;28;20477;-57
2022/06/25 12:21:04;;;;;;;9.02;5.10;;;;;;;30.25;36.77;97360.09;10495026;28;20083;-58
2022/06/25 12:26:03;;;;;;;5.07;4.45;;;;;;;30.23;36.33;97359.38;10417181;28;20467;-57
2022/06/25 12:31:11;;;;;;;6.40;4.38;;;;;;;30.00;36.34;97349.84;10415997;28;20400;-57
2022/06/25 12:36:19;;;;;;;9.63;5.07;;;;;;;29.89;37.20;97359.66;10415602;28;20072;-57
2022/06/25 12:41:18;;;;;;;;;;;;;;;30.20;37.19;97354.31;10417065;28;20063;-57
2022/06/25 12:46:20;;;;;;;7.35;5.45;;;;;;;30.20;37.23;97345.44;10416085;28;19912;-57
2022/06/25 12:51:19;;;;;;;6.97;4.60;;;;;;;30.14;37.36;97354.88;10416494;28;20068;-57
2022/06/25 12:56:18;;;;;;;6.10;4.88;;;;;;;30.32;36.40;97355.06;10437155;28;20501;-57
2022/06/25 13:01:26;;;;;;;8.50;4.90;;;;;;;30.75;36.84;97357.50;10471451;28;20060;-57
2022/06/25 13:06:25;;;;;;;8.85;5.15;;;;;;;31.08;36.22;97341.22;10415036;28;20063;-57
2022/06/25 13:11:24;;;;;;;7.65;4.78;;;;;;;31.11;36.57;97331.03;10420435;28;20063;-57
2022/06/25 13:16:23;;;;;;;8.13;4.57;;;;;;;31.09;35.81;97322.28;10478626;28;20024;-57
2022/06/25 13:21:22;;;;;;;8.52;4.95;;;;;;;31.14;33.93;97309.31;10481322;28;20015;-57
2022/06/25 13:26:23;;;;;;;8.57;5.07;;;;;;;31.05;34.69;97303.94;10496920;28;20026;-57
2022/06/25 13:31:22;;;;;;;7.07;4.40;;;;;;;30.48;33.55;97309.91;10428942;28;20925;-57
2022/06/25 13:36:21;;;;;;;7.32;4.22;;;;;;;30.38;34.45;97316.22;10413074;28;20494;-57
2022/06/25 13:41:21;;;;;;;9.45;4.57;;;;;;;30.58;33.94;97301.06;10394071;28;20496;-57
2022/06/25 13:46:21;;;;;;;7.50;4.40;;;;;;;30.77;34.45;97311.78;10413017;28;20510;-57
2022/06/25 13:51:20;;;;;;;9.93;4.43;;;;;;;30.63;34.98;97321.09;10412095;28;20075;-57
2022/06/25 13:56:20;;;;;;;8.32;4.50;;;;;;;30.84;35.38;97301.38;10482753;28;20442;-57
2022/06/25 14:01:19;;;;;;;8.88;4.80;;;;;;;31.15;35.17;97305.66;10467722;28;20068;-57
2022/06/25 14:06:18;;;;;;;6.32;4.30;;;;;;;31.06;34.56;97311.03;10413386;28;20514;-57
2022/06/25 14:11:17;;;;;;;8.60;4.78;;;;;;;30.96;35.36;97311.84;10423351;28;20564;-57
2022/06/25 14:16:16;;;;;;;7.18;4.40;;;;;;;31.11;34.14;97316.78;10497233;28;20570;-57
2022/06/25 14:21:15;;;;;;;8.35;4.50;;;;;;;31.14;33.69;97319.19;10486771;28;20494;-57
2022/06/25 14:26:14;;;;;;;8.20;4.60;;;;;;;30.98;34.44;97303.66;10455413;28;20038;-57
2022/06/25 14:31:13;;;;;;;9.32;4.80;;;;;;;30.71;33.24;97313.19;10446130;28;20044;-57
2022/06/25 14:46:50;;;;;;;6.75;4.50;;;;;;;30.47;34.41;97291.31;10439073;28;20060;-57
2022/06/25 14:51:49;;;;;;;7.40;4.22;;;;;;;30.74;34.30;97283.44;10421015;28;20056;-57
2022/06/25 14:56:48;;;;;;;7.18;4.50;;;;;;;31.07;35.14;97277.84;10439034;28;20530;-57
2022/06/25 15:01:47;;;;;;;6.47;4.65;;;;;;;30.42;34.83;97157.00;10437391;28;20521;-57
2022/06/25 15:06:46;;;;;;;7.88;4.60;;;;;;;31.17;33.15;97276.88;10461972;28;20115;-57
2022/06/25 15:11:45;;;;;;;8.05;4.55;;;;;;;30.70;33.78;97268.66;10443641;28;20024;-57
2022/06/25 15:16:44;;;;;;;17.60;5.22;;;;;;;30.58;35.24;97263.56;10502614;28;20055;-57
2022/06/25 15:21:43;;;;;;;8.93;5.13;;;;;;;30.34;36.15;97262.09;10490428;28;20064;-57
2022/06/25 15:26:42;;;;;;;10.02;5.43;;;;;;;29.90;37.68;97270.38;10442376;28;20040;-58
2022/06/25 15:31:41;;;;;;;10.50;5.30;;;;;;;29.63;37.25;97268.28;10459152;28;20110;-58
2022/06/25 15:36:40;;;;;;;9.77;5.22;;;;;;;29.40;40.79;97261.38;10460542;28;20071;-58
2022/06/25 15:41:39;;;;;;;8.25;5.10;;;;;;;29.31;43.46;97260.34;10460242;28;20063;-58
2022/06/25 15:46:41;;;;;;;8.40;5.60;;;;;;;29.22;44.41;97259.25;10439845;28;20027;-58
2022/06/25 15:51:40;;;;;;;9.70;6.00;;;;;;;29.07;45.39;97256.06;10461491;28;20067;-57
2022/06/25 15:56:40;;;;;;;13.15;6.55;;;;;;;28.92;46.51;97252.00;10447800;28;20028;-58
2022/06/25 16:01:40;;;;;;;9.73;6.63;;;;;;;28.74;47.69;97257.06;10437505;28;20051;-58
2022/06/25 16:06:39;;;;;;;11.70;5.85;;;;;;;28.51;48.79;97255.44;10444401;28;20183;-58
2022/06/25 16:11:39;;;;;;;10.65;5.78;;;;;;;28.23;49.39;97261.19;10444822;28;20513;-57
2022/06/25 16:16:44;;;;;;;9.00;6.05;;;;;;;27.95;49.93;97272.34;10504183;28;20090;-58
2022/06/25 16:21:44;;;;;;;9.95;6.25;;;;;;;27.71;50.06;97275.97;10474395;28;20063;-58
2022/06/25 16:26:44;;;;;;;11.32;6.50;;;;;;;27.51;49.92;97266.00;10488544;28;20176;-58
2022/06/25 16:31:43;;;;;;;10.80;6.25;;;;;;;27.29;50.66;97258.81;10467357;28;20068;-58
2022/06/25 16:36:42;;;;;;;8.93;5.57;;;;;;;27.19;50.71;97269.31;10419196;28;20040;-58
2022/06/25 16:41:43;;;;;;;11.02;6.05;;;;;;;26.93;51.49;97253.50;10418701;28;20071;-58
2022/06/25 16:46:46;;;;;;;10.63;6.15;;;;;;;26.83;52.44;97276.44;10418644;28;20053;-57
2022/06/25 16:51:48;;;;;;;10.88;6.55;;;;;;;26.60;53.90;97277.28;10421850;28;20515;-58
2022/06/25 16:56:49;;;;;;;11.43;6.15;;;;;;;26.41;54.70;97261.81;10450510;28;20071;-57
2022/06/25 17:01:50;;;;;;;11.90;6.82;;;;;;;26.19;55.10;97267.81;10480706;28;20530;-57
2022/06/25 17:06:49;;;;;;;10.05;6.43;;;;;;;25.98;55.68;97263.09;10418627;28;20068;-58
2022/06/25 17:11:48;;;;;;;11.60;6.43;;;;;;;25.82;55.99;97265.97;10429483;28;20071;-58
2022/06/25 17:16:47;;;;;;;10.70;6.38;;;;;;;25.62;56.55;97269.16;10494893;28;20043;-58
2022/06/25 17:21:46;;;;;;;9.48;6.15;;;;;;;25.46;56.57;97280.84;10476363;28;20123;-58
2022/06/25 17:26:45;;;;;;;12.63;6.70;;;;;;;25.39;56.53;97279.56;10444070;28;20114;-58
2022/06/25 17:31:44;;;;;;;16.02;6.63;;;;;;;25.27;56.79;97283.03;10454880;28;20539;-58
2022/06/25 17:36:43;;;;;;;9.82;6.32;;;;;;;25.06;56.64;97278.25;10437588;28;20075;-58
2022/06/25 17:41:42;;;;;;;12.57;6.50;;;;;;;24.94;56.94;97283.53;10432780;28;20032;-58
2022/06/25 17:46:41;;;;;;;10.23;6.53;;;;;;;24.83;57.28;97271.78;10413527;28;20072;-58
2022/06/25 17:51:40;;;;;;;11.50;7.57;;;;;;;24.74;58.90;97287.47;10414013;28;20071;-58
2022/06/25 17:56:39;;;;;;;12.15;7.72;;;;;;;24.62;60.99;97291.78;10442738;28;20019;-58
2022/06/25 18:01:38;;;;;;;10.40;7.72;;;;;;;24.52;63.01;97288.00;10481307;28;20036;-58
2022/06/25 18:06:37;;;;;;;13.80;8.07;;;;;;;24.40;65.24;97294.97;10462000;28;20796;-58
2022/06/25 18:11:36;;;;;;;15.48;8.95;;;;;;;24.27;65.57;97295.75;10467101;28;20055;-58
2022/06/25 18:16:35;;;;;;;18.30;7.90;;;;;;;24.22;66.03;97312.91;10424590;28;20079;-58
2022/06/25 18:21:34;;;;;;;12.52;7.53;;;;;;;24.16;64.98;97314.09;10421723;28;20060;-58
2022/06/25 18:26:33;;;;;;;11.02;7.25;;;;;;;24.11;64.40;97326.81;10420812;28;20418;-58
2022/06/25 18:31:32;;;;;;;10.38;7.43;;;;;;;24.06;63.29;97328.91;10420488;28;20068;-58
2022/06/25 18:36:31;;;;;;;13.63;8.10;;;;;;;23.99;62.76;97346.97;10420675;28;20060;-58
2022/06/25 18:41:30;;;;;;;11.35;7.63;;;;;;;23.95;62.23;97364.00;10420881;28;20072;-58
2022/06/25 18:46:29;;;;;;;11.77;7.47;;;;;;;23.64;66.18;97402.97;10419963;28;20060;-59
2022/06/25 18:51:28;;;;;;;11.98;7.13;;;;;;;23.44;67.42;97416.50;10421529;28;20032;-58
2022/06/25 18:56:27;;;;;;;11.25;7.75;;;;;;;23.17;68.19;97425.09;10449068;28;20394;-58
2022/06/25 19:01:27;;;;;;;13.68;8.70;;;;;;;22.93;70.91;97421.22;10494356;28;20035;-58
2022/06/25 19:06:26;;;;;;;10.85;8.15;;;;;;;22.72;73.86;97412.66;10433632;28;20083;-59
2022/06/25 19:11:26;;;;;;;10.27;6.93;;;;;;;22.44;73.86;97418.59;10457322;28;20071;-58
2022/06/25 19:16:25;;;;;;;11.70;7.43;;;;;;;22.31;73.38;97421.88;10430215;28;20451;-59
2022/06/25 19:21:25;;;;;;;12.30;5.93;;;;;;;22.17;72.24;97395.34;10422541;28;20376;-59
2022/06/25 19:26:24;;;;;;;8.90;5.25;;;;;;;22.06;70.93;97395.94;10422305;28;20072;-58
2022/06/25 19:31:23;;;;;;;7.82;5.05;;;;;;;21.95;68.75;97393.81;10422573;28;20037;-59
2022/06/25 19:36:22;;;;;;;12.75;6.22;;;;;;;21.82;71.19;97399.81;10421574;28;20067;-59
2022/06/25 19:41:21;;;;;;;13.95;6.72;;;;;;;21.65;72.29;97387.50;10420720;28;20033;-58
2022/06/25 19:46:20;;;;;;;12.98;5.57;;;;;;;21.63;71.14;97389.34;10454512;28;20048;-59
2022/06/25 19:51:19;;;;;;;8.02;4.57;;;;;;;21.59;70.67;97385.16;10434248;28;20059;-58
2022/06/25 19:56:18;;;;;;;8.73;4.85;;;;;;;21.55;70.74;97382.69;10438329;28;20035;-58
2022/06/25 20:01:17;;;;;;;8.25;4.65;;;;;;;21.51;69.89;97375.84;10452807;28;20056;-59
2022/06/25 20:06:16;;;;;;;10.13;4.68;;;;;;;21.57;69.12;97379.09;10459859;28;20089;-58
2022/06/25 20:11:15;;;;;;;11.90;5.20;;;;;;;21.54;69.56;97388.03;10433442;28;20044;-58
2022/06/25 20:16:14;;;;;;;11.07;5.43;;;;;;;21.57;70.35;97379.97;10501365;28;20115;-58
2022/06/25 20:21:13;;;;;;;11.80;5.72;;;;;;;21.65;71.49;97387.50;10500508;28;20074;-59
2022/06/25 20:26:12;;;;;;;10.02;5.63;;;;;;;21.63;72.36;97387.56;10441750;28;20063;-58
2022/06/25 20:31:11;;;;;;;11.93;5.82;;;;;;;21.59;73.37;97391.28;10440081;28;20052;-59
2022/06/25 20:36:10;;;;;;;10.93;5.80;;;;;;;21.50;74.13;97404.94;10442986;28;20051;-59
2022/06/25 20:41:10;;;;;;;11.52;6.00;;;;;;;21.22;74.98;97410.75;10416130;28;20025;-59
2022/06/25 20:46:09;;;;;;;9.65;5.63;;;;;;;20.81;76.32;97416.25;10404551;28;20079;-59
2022/06/25 20:51:08;;;;;;;9.80;5.32;;;;;;;20.24;80.91;97443.41;10422616;28;20415;-59
2022/06/25 20:56:06;;;;;;;10.25;6.15;;;;;;;20.10;82.24;97451.09;10496143;28;20043;-59
2022/06/25 21:01:05;;;;;;;15.43;6.32;;;;;;;19.97;83.07;97461.28;10461077;28;20033;-58
2022/06/25 21:11:22;;;;;;;9.32;4.00;;;;;;;19.40;81.60;97487.34;10493939;28;20063;-59
2022/06/25 21:16:21;;;;;;;9.88;4.03;;;;;;;19.32;81.14;97499.09;10498975;28;20031;-58
2022/06/25 21:21:20;;;;;;;7.47;3.92;;;;;;;19.23;81.23;97502.97;10498716;28;20035;-59
2022/06/25 21:26:19;;;;;;;11.57;4.10;;;;;;;19.26;80.97;97516.00;10435189;28;20082;-59
2022/06/25 21:31:18;;;;;;;8.88;3.92;;;;;;;19.31;80.42;97506.13;10421942;28;20040;-58
2022/06/25 21:36:17;;;;;;;8.35;3.83;;;;;;;19.36;80.09;97506.81;10443633;28;20040;-59
2022/06/25 21:41:17;;;;;;;10.85;5.22;;;;;;;19.42;80.61;97506.56;10414636;28;20407;-59
2022/06/25 21:46:16;;;;;;;10.50;4.72;;;;;;;19.47;81.44;97519.53;10414488;28;20090;-59
2022/06/25 21:51:15;;;;;;;13.25;5.15;;;;;;;19.47;82.50;97526.59;10414021;28;20480;-59
2022/06/25 21:56:14;;;;;;;13.80;5.82;;;;;;;19.39;85.01;97537.41;10434835;28;20520;-58
2022/06/25 22:01:13;;;;;;;7.68;5.03;;;;;;;19.17;86.02;97534.78;10460996;28;20391;-58
2022/06/25 22:06:12;;;;;;;14.38;4.53;;;;;;;18.97;86.75;97546.03;10454691;28;20060;-58
2022/06/25 22:11:11;;;;;;;9.45;4.28;;;;;;;18.51;89.44;97551.22;10455515;28;20484;-59
2022/06/25 22:16:11;;;;;;;6.43;4.22;;;;;;;18.35;90.47;97565.81;10485936;28;20503;-58
2022/06/25 22:21:10;;;;;;;12.68;4.60;;;;;;;18.21;90.32;97560.19;10413619;28;20068;-59
2022/06/25 22:26:09;;;;;;;8.27;4.22;;;;;;;18.20;90.35;97582.97;10413119;28;20084;-58
2022/06/25 22:31:08;;;;;;;9.75;4.57;;;;;;;18.31;89.99;97582.59;10412966;28;20102;-58
2022/06/25 22:36:07;;;;;;;7.75;4.85;;;;;;;18.48;90.21;97617.03;10412925;28;20790;-58
2022/06/25 22:41:06;;;;;;;10.65;5.47;;;;;;;18.60;90.35;97616.59;10412381;28;20072;-59
2022/06/25 22:46:05;;;;;;;10.38;5.15;;;;;;;18.66;91.06;97607.63;10413307;28;20037;-59
2022/06/25 22:51:04;;;;;;;12.68;6.28;;;;;;;18.74;91.15;97617.91;10401304;28;20075;-58
2022/06/25 22:56:03;;;;;;;13.18;5.75;;;;;;;18.83;91.78;97620.22;10438736;28;20035;-58
2022/06/25 23:01:02;;;;;;;11.15;5.85;;;;;;;18.89;91.55;97617.34;10491073;28;20062;-58
2022/06/25 23:06:01;;;;;;;11.85;5.55;;;;;;;18.91;92.05;97609.41;10449025;28;20143;-59
2022/06/25 23:11:00;;;;;;;10.77;5.93;;;;;;;18.91;92.02;97626.03;10450854;28;20539;-59
2022/06/25 23:15:59;;;;;;;13.98;6.55;;;;;;;18.90;92.13;97613.81;10461346;28;20534;-58
2022/06/25 23:20:58;;;;;;;11.65;6.38;;;;;;;18.86;92.58;97601.69;10421371;28;20116;-58
2022/06/25 23:25:57;;;;;;;9.23;6.28;;;;;;;18.91;92.64;97609.41;10419972;28;20123;-58
2022/06/25 23:30:56;;;;;;;13.18;6.55;;;;;;;18.89;93.10;97611.22;10419013;28;20072;-58
2022/06/25 23:35:55;;;;;;;9.07;5.88;;;;;;;18.90;92.94;97610.31;10419665;28;20025;-59